Language selection

Weather shortcuts

Atlantic - Newfoundland: Past 24 Hour Conditions

 

West Chedabucto Bay - 44489

08:00 PM ADT 13 June 2024Buoy position: 45.49N 61.14W
Disclaimer

This table is a summary of hourly weather conditions for the past 24 hours.
Please note that these observations might not always be representative of weather conditions over their associated marine area.

Date / Time
(ADT)
Wind(knots) Wave height(m) Wave period(s) Pressure(kPa) Air tempC) Water tempC)
13 June 2024
20:00 WSW 16 gusts 17 0.51 3.7 101.4 15 12
19:00 WSW 17 gusts 19 0.59 3.7 101.4 16 12
18:00 WSW 17 gusts 19 0.57 3.6 101.4 16 12
17:00 WSW 16 gusts 20 0.56 3.4 101.4 15 12
16:00 SW 13 gusts 15 0.49 3.3 101.4 16 12
15:00 SW 11 gusts 15 0.48 3.7 101.4 15 12
14:00 SW 16 gusts 19 0.45 3.6 101.4 15 12
13:00 SW 12 gusts 15 0.46 4.0 101.5 15 11
12:00 SW 17 gusts 20 0.51 4.1 101.5 13 12
11:00 SW 15 gusts 17 0.32 6.1 101.4 14 12
10:00 S 7 gusts 8 0.33 6.2 101.5 13 12
9:00 SSW 8 gusts 10 0.33 6.1 101.5 12 11
8:00 W 8 gusts 9 0.25 5.8 101.5 12 11
7:00 WSW 8 gusts 8 0.24 5.2 101.4 12 11
6:00 WSW 6 gusts 8 0.26 4.9 101.4 12 11
5:00 WSW 6 gusts 8 0.24 5.5 101.4 12 11
4:00 WSW 4 gusts 8 0.29 4.0 101.3 12 11
3:00 WSW 6 gusts 8 0.26 5.5 101.3 12 11
2:00 WSW 8 gusts 10 0.31 5.7 101.3 11 11
1:00 WSW 8 gusts 10 0.31 5.8 101.4 11 11
0:00 SW 9 gusts 10 0.29 6.4 101.4 12 11
12 June 2024
23:00 WSW 4 gusts 4 0.29 6.6 101.4 12 11
22:00 WNW 5 gusts 7 0.30 6.4 101.4 12 11
21:00 W 5 gusts 6 0.32 6.5 101.4 11 11
20:00 W 11 gusts 14 0.29 6.6 101.4 11 11

Zoom-in to make a selection

Map of Atlantic - Newfoundland marine weather areas Banquereau - 44139 East Chedabucto Bay – 44488 West Chedabucto Bay – 44489 Blanc-Sablon Airport Cap Whittle Chevery Natashquan Airport Heath Point Îles de la Madeleine Airport Miscou Island Eskasoni (First Nations) Grand Étang Ingonish Beach North Mountain St.Paul Island J.A. Douglas McCurdy Sydney Airport Charlottetown Airport East Point North Cape Argentia Berry Hill Bonavista Burgeo Cape Race Corner Brook Daniel's Harbour Englee Ferolle Point La Scie Port aux Basques Sagona Island St. Anthony Airport St. John's Int'l Airport St. Lawrence Stephenville Airport Twillingate Winterland Branch Hill Wreckhouse Grates Cove Pool's Island Marticot Island Long Pond Cartwright Airport Mary's Harbour
Legend:
buoy Buoy
land station Land Station

Atlantic - Newfoundland Area

Another Region

Features

New Predicting and Alerting Coastal Flooding Program

Find out about coastal flooding coverage, forecasts and warnings in your region

Date modified: